createdAt,value
2019-05-16T00:01:23.833Z,19.80
2019-05-16T00:03:50.929Z,21.20
2019-05-16T00:06:18.052Z,19.32
2019-05-16T00:08:45.162Z,18.12
2019-05-16T00:11:12.207Z,19.00
2019-05-16T00:13:39.288Z,19.62
2019-05-16T00:16:07.984Z,20.85
2019-05-16T00:18:35.122Z,20.68
2019-05-16T00:21:02.176Z,24.32
2019-05-16T00:23:29.299Z,23.42
2019-05-16T00:25:58.440Z,18.82
2019-05-16T00:28:25.332Z,19.25
2019-05-16T00:30:52.426Z,19.07
2019-05-16T00:33:19.514Z,21.57
2019-05-16T00:35:48.149Z,20.97
2019-05-16T00:38:15.533Z,22.27
2019-05-16T00:40:42.661Z,18.62
2019-05-16T00:43:09.728Z,19.25
2019-05-16T00:45:38.578Z,19.48
2019-05-16T00:48:05.796Z,19.67
2019-05-16T00:50:32.866Z,20.40
2019-05-16T00:52:59.909Z,23.52
2019-05-16T00:55:28.402Z,25.68
2019-05-16T00:57:58.190Z,19.45
2019-05-16T01:00:44.893Z,21.27
2019-05-16T01:03:12.005Z,20.00
2019-05-16T01:05:39.397Z,25.17
2019-05-16T01:08:07.899Z,20.40
2019-05-16T01:10:35.036Z,20.57
2019-05-16T01:13:02.088Z,20.75
2019-05-16T01:15:29.164Z,24.65
2019-05-16T01:17:58.720Z,20.25
2019-05-16T01:20:25.210Z,21.90
2019-05-16T01:22:52.278Z,18.50
2019-05-16T01:25:19.689Z,20.10
2019-05-16T01:27:47.685Z,21.07
2019-05-16T01:30:14.992Z,23.00
2019-05-16T01:32:42.047Z,20.65
2019-05-16T01:35:09.149Z,23.38
2019-05-16T01:37:38.376Z,24.85
2019-05-16T01:40:11.298Z,22.35
2019-05-16T01:42:38.792Z,21.52
2019-05-16T01:45:08.103Z,21.17
2019-05-16T01:47:34.887Z,20.68
2019-05-16T01:50:02.201Z,18.00
2019-05-16T01:52:29.278Z,22.60
2019-05-16T01:54:58.552Z,21.65
2019-05-16T01:57:25.336Z,22.07
2019-05-16T01:59:52.415Z,20.32
2019-05-16T02:02:19.494Z,16.30
2019-05-16T02:04:48.539Z,19.75
2019-05-16T02:07:15.534Z,20.82
2019-05-16T02:09:42.591Z,23.18
2019-05-16T02:12:10.783Z,18.57
2019-05-16T02:14:38.749Z,18.92
2019-05-16T02:17:05.918Z,23.38
2019-05-16T02:19:33.002Z,19.15
2019-05-16T02:22:00.076Z,20.88
2019-05-16T02:24:28.489Z,19.82
2019-05-16T02:26:55.602Z,20.55
2019-05-16T02:29:22.664Z,22.42
2019-05-16T02:31:51.330Z,19.95
2019-05-16T02:34:21.478Z,18.27
2019-05-16T02:37:08.278Z,19.70
2019-05-16T02:39:16.752Z,19.60
2019-05-16T02:41:46.130Z,24.67
2019-05-16T02:44:12.798Z,21.65
2019-05-16T02:46:41.865Z,18.82
2019-05-16T02:49:11.540Z,21.45
2019-05-16T02:51:40.608Z,21.30
2019-05-16T02:54:06.975Z,19.40
2019-05-16T02:56:34.058Z,19.10
2019-05-16T02:59:01.828Z,18.60
2019-05-16T03:01:31.709Z,21.20
2019-05-16T03:04:01.455Z,22.10
2019-05-16T03:06:27.344Z,21.62
2019-05-16T03:08:54.538Z,18.98
2019-05-16T03:11:22.015Z,20.77
2019-05-16T03:13:51.334Z,21.35
2019-05-16T03:16:22.224Z,22.37
2019-05-16T03:18:51.425Z,18.92
2019-05-16T03:21:17.744Z,19.85
2019-05-16T03:23:44.796Z,20.32
2019-05-16T03:26:12.077Z,20.17
2019-05-16T03:28:41.276Z,20.23
2019-05-16T03:31:14.152Z,24.05
2019-05-16T03:33:43.561Z,21.25
2019-05-16T03:36:06.175Z,22.98
2019-05-16T03:38:33.239Z,20.62
2019-05-16T03:41:01.123Z,21.93
2019-05-16T03:43:30.927Z,20.30
2019-05-16T03:45:57.194Z,25.00
2019-05-16T03:48:24.264Z,28.35
2019-05-16T03:50:51.294Z,21.93
2019-05-16T03:53:21.205Z,24.32
2019-05-16T03:55:47.339Z,22.60
2019-05-16T03:58:14.399Z,25.25
2019-05-16T04:00:52.345Z,35.95
2019-05-16T04:03:20.902Z,25.45
2019-05-16T04:05:46.766Z,25.02
2019-05-16T04:08:19.635Z,24.65
2019-05-16T04:10:42.829Z,25.60
2019-05-16T04:13:11.501Z,24.37
2019-05-16T04:15:40.824Z,23.85
2019-05-16T04:18:10.932Z,21.48
2019-05-16T04:20:36.924Z,23.95
2019-05-16T04:23:03.967Z,20.95
2019-05-16T04:25:31.211Z,26.82
2019-05-16T04:28:00.891Z,26.40
2019-05-16T04:30:31.024Z,25.65
2019-05-16T04:32:56.251Z,25.57
2019-05-16T04:35:23.356Z,25.60
2019-05-16T04:37:51.255Z,27.20
2019-05-16T04:40:21.641Z,24.45
2019-05-16T04:42:47.544Z,27.77
2019-05-16T04:45:14.647Z,24.90
2019-05-16T04:47:41.746Z,28.42
2019-05-16T04:50:11.531Z,24.65
2019-05-16T04:52:41.367Z,27.93
2019-05-16T04:55:12.212Z,32.40
2019-05-16T04:57:42.226Z,26.87
2019-05-16T05:00:11.172Z,24.45
2019-05-16T05:02:41.224Z,22.42
2019-05-16T05:05:06.682Z,25.43
2019-05-16T05:07:33.751Z,24.70
2019-05-16T05:10:01.016Z,26.33
2019-05-16T05:12:31.169Z,25.95
2019-05-16T05:14:57.008Z,21.95
2019-05-16T05:17:24.115Z,23.45
2019-05-16T05:19:51.187Z,25.52
2019-05-16T05:22:19.899Z,27.50
2019-05-16T05:24:47.032Z,26.15
2019-05-16T05:27:14.147Z,21.55
2019-05-16T05:29:41.236Z,24.12
2019-05-16T05:32:14.016Z,22.13
2019-05-16T05:34:39.695Z,19.87
2019-05-16T05:37:06.302Z,21.17
2019-05-16T05:39:33.376Z,24.57
2019-05-16T05:42:00.444Z,19.60
2019-05-16T05:44:27.541Z,19.40
2019-05-16T05:46:54.628Z,20.33
2019-05-16T05:49:21.707Z,17.60
2019-05-16T05:51:50.033Z,18.13
2019-05-16T05:54:17.330Z,18.27
2019-05-16T05:56:44.401Z,15.23
2019-05-16T05:59:11.608Z,20.83
2019-05-16T06:01:40.609Z,14.93
2019-05-16T06:04:07.727Z,15.00
2019-05-16T06:06:34.816Z,22.03
2019-05-16T06:09:02.010Z,17.33
2019-05-16T06:11:30.761Z,15.73
2019-05-16T06:14:00.322Z,19.27
2019-05-16T06:16:26.885Z,17.73
2019-05-16T06:18:56.668Z,18.43
2019-05-16T06:21:22.942Z,20.70
2019-05-16T06:23:50.917Z,16.20
2019-05-16T06:26:20.378Z,18.70
2019-05-16T06:28:47.233Z,19.17
2019-05-16T06:31:14.629Z,16.80
2019-05-16T06:33:41.779Z,14.03
2019-05-16T06:36:11.041Z,17.93
2019-05-16T06:38:40.386Z,18.17
2019-05-16T06:41:06.831Z,21.17
2019-05-16T06:43:33.905Z,24.47
2019-05-16T06:46:01.002Z,20.07
2019-05-16T06:48:30.260Z,20.50
2019-05-16T06:50:57.119Z,27.00
2019-05-16T06:53:24.198Z,20.50
2019-05-16T06:55:51.292Z,23.00
2019-05-16T06:58:21.870Z,22.47
2019-05-16T07:00:51.665Z,25.50
2019-05-16T07:03:16.432Z,21.87
2019-05-16T07:05:43.510Z,24.90
2019-05-16T07:08:10.588Z,27.43
2019-05-16T07:10:39.664Z,25.37
2019-05-16T07:13:06.604Z,23.47
2019-05-16T07:15:33.685Z,24.00
2019-05-16T07:18:00.756Z,21.83
2019-05-16T07:20:30.054Z,24.57
2019-05-16T07:22:56.940Z,23.50
2019-05-16T07:25:24.017Z,26.87
2019-05-16T07:27:51.330Z,25.20
2019-05-16T07:30:19.928Z,26.67
2019-05-16T07:32:47.086Z,24.07
2019-05-16T07:35:14.178Z,24.50
2019-05-16T07:37:41.252Z,30.90
2019-05-16T07:40:19.102Z,22.43
2019-05-16T07:42:40.128Z,22.97
2019-05-16T07:45:06.653Z,27.57
2019-05-16T07:47:33.734Z,22.20
2019-05-16T07:50:01.233Z,24.80
2019-05-16T07:52:35.493Z,23.63
2019-05-16T07:54:59.936Z,23.87
2019-05-16T07:57:26.300Z,24.43
2019-05-16T07:59:53.364Z,26.03
2019-05-16T08:02:21.104Z,24.20
2019-05-16T08:04:50.216Z,29.60
2019-05-16T08:07:19.885Z,24.87
2019-05-16T08:09:46.337Z,18.27
2019-05-16T08:12:13.450Z,20.90
2019-05-16T08:14:41.049Z,23.80
2019-05-16T08:17:10.433Z,22.57
2019-05-16T08:19:39.349Z,27.20
2019-05-16T08:22:06.189Z,19.70
2019-05-16T08:24:36.082Z,26.23
2019-05-16T08:27:02.284Z,24.50
2019-05-16T08:29:31.653Z,20.97
2019-05-16T08:32:01.859Z,24.43
2019-05-16T08:34:27.384Z,21.03
2019-05-16T08:36:54.420Z,20.03
2019-05-16T08:39:21.653Z,22.50
2019-05-16T08:41:52.063Z,24.50
2019-05-16T08:44:21.325Z,22.10
2019-05-16T08:46:53.275Z,23.43
2019-05-16T08:49:15.767Z,30.70
2019-05-16T08:51:43.006Z,22.57
2019-05-16T08:54:14.958Z,28.60
2019-05-16T08:56:44.156Z,21.07
2019-05-16T08:59:13.247Z,20.70
2019-05-16T09:01:46.744Z,25.73
2019-05-16T09:04:06.288Z,25.17
2019-05-16T09:06:33.408Z,23.20
2019-05-16T09:09:20.448Z,22.13
2019-05-16T09:11:40.671Z,23.10
2019-05-16T09:13:58.548Z,23.40
2019-05-16T09:16:27.493Z,24.90
2019-05-16T09:19:20.661Z,19.60
2019-05-16T09:21:47.789Z,24.07
2019-05-16T09:24:34.314Z,21.87
2019-05-16T09:27:13.761Z,28.47
2019-05-16T09:29:40.815Z,20.67
2019-05-16T09:32:16.654Z,23.60
2019-05-16T09:34:42.951Z,26.00
2019-05-16T09:37:10.131Z,20.80
2019-05-16T09:39:37.329Z,21.90
2019-05-16T09:42:04.440Z,23.83
2019-05-16T09:44:31.515Z,21.23
2019-05-16T09:46:58.542Z,26.13
2019-05-16T09:49:26.204Z,18.60
2019-05-16T09:52:00.602Z,21.13
2019-05-16T09:54:27.678Z,17.83
2019-05-16T09:56:57.000Z,22.10
2019-05-16T09:59:30.056Z,21.80
2019-05-16T10:01:57.428Z,23.73
2019-05-16T10:04:26.704Z,23.60
2019-05-16T10:06:59.632Z,25.10
2019-05-16T10:09:38.523Z,23.93
2019-05-16T10:12:11.360Z,21.53
2019-05-16T10:14:42.026Z,21.90
2019-05-16T10:17:09.102Z,20.13
2019-05-16T10:19:36.770Z,25.87
2019-05-16T10:22:11.500Z,23.33
2019-05-16T10:24:38.592Z,23.03
2019-05-16T10:27:06.610Z,28.53
2019-05-16T10:29:41.123Z,21.50
2019-05-16T10:32:08.281Z,24.47
2019-05-16T10:34:37.118Z,27.60
2019-05-16T10:37:10.504Z,23.20
2019-05-16T10:39:37.626Z,22.23
2019-05-16T10:42:06.806Z,24.90
2019-05-16T10:44:39.901Z,27.10
2019-05-16T10:47:07.570Z,22.30
2019-05-16T10:50:05.421Z,26.87
2019-05-16T10:52:32.488Z,25.67
2019-05-16T10:55:02.529Z,23.60
2019-05-16T10:57:37.602Z,25.03
2019-05-16T11:03:12.287Z,24.37
2019-05-16T11:06:03.005Z,26.10
2019-05-16T11:08:21.040Z,27.07
2019-05-16T11:11:07.611Z,30.00
2019-05-16T11:13:36.934Z,26.77
2019-05-16T11:16:29.721Z,29.47
2019-05-16T11:19:13.800Z,31.70
2019-05-16T11:21:51.845Z,29.07
2019-05-16T11:24:18.971Z,29.47
2019-05-16T11:26:47.397Z,32.53
2019-05-16T11:29:21.112Z,27.33
2019-05-16T11:31:48.430Z,29.03
2019-05-16T11:34:27.992Z,32.97
2019-05-16T11:36:56.976Z,28.00
2019-05-16T11:39:30.107Z,29.00
2019-05-16T11:41:57.236Z,28.83
2019-05-16T11:44:28.196Z,30.83
2019-05-16T11:46:59.230Z,31.57
2019-05-16T11:49:27.548Z,34.33
2019-05-16T11:52:13.490Z,34.00
2019-05-16T11:54:40.578Z,30.50
2019-05-16T11:57:27.124Z,35.50
2019-05-16T12:00:08.013Z,29.90
2019-05-16T12:02:37.697Z,32.47
2019-05-16T12:05:10.900Z,32.77
2019-05-16T12:07:44.174Z,27.07
2019-05-16T12:10:17.959Z,35.33
2019-05-16T12:12:45.064Z,32.47
2019-05-16T12:18:11.466Z,27.80
2019-05-16T12:20:51.189Z,29.13
2019-05-16T12:23:18.289Z,29.03
2019-05-16T12:25:47.486Z,31.70
2019-05-16T12:28:20.403Z,36.17
2019-05-16T12:30:47.476Z,42.17
2019-05-16T12:33:14.554Z,33.17
2019-05-16T12:35:41.643Z,28.87
2019-05-16T12:38:08.738Z,35.23
2019-05-16T12:40:37.672Z,29.33
2019-05-16T12:43:11.355Z,36.47
2019-05-16T12:45:38.954Z,34.00
2019-05-16T12:48:20.405Z,35.83
2019-05-16T12:50:52.624Z,30.23
2019-05-16T12:53:23.519Z,32.30
2019-05-16T12:55:56.660Z,29.53
2019-05-16T12:58:37.710Z,27.00
2019-05-16T13:01:07.440Z,32.77
2019-05-16T13:03:40.061Z,35.90
2019-05-16T13:06:07.117Z,30.90
2019-05-16T13:08:34.265Z,31.50
2019-05-16T13:11:01.348Z,32.07
2019-05-16T13:13:28.485Z,29.73
2019-05-16T13:15:55.592Z,31.43
2019-05-16T13:18:22.691Z,31.00
2019-05-16T13:20:49.775Z,28.30
2019-05-16T13:23:18.322Z,28.83
2019-05-16T13:25:52.016Z,28.73
2019-05-16T13:28:19.200Z,34.07
2019-05-16T13:30:47.113Z,31.87
2019-05-16T13:33:21.455Z,28.50
2019-05-16T13:35:48.550Z,28.47
2019-05-16T13:38:17.314Z,28.03
2019-05-16T13:40:54.376Z,29.33
2019-05-16T13:43:21.449Z,30.17
2019-05-16T13:45:48.581Z,28.93
2019-05-16T13:48:17.201Z,27.97
2019-05-16T13:51:08.337Z,26.20
2019-05-16T13:53:49.900Z,29.97
2019-05-16T13:56:29.225Z,27.03
2019-05-16T13:58:57.047Z,24.63
2019-05-16T14:01:50.889Z,31.20
2019-05-16T14:04:30.392Z,26.83
2019-05-16T14:06:58.934Z,24.77
2019-05-16T14:09:52.150Z,27.83
2019-05-16T14:12:19.329Z,25.90
2019-05-16T14:15:08.029Z,28.80
2019-05-16T14:17:41.177Z,35.00
2019-05-16T14:20:27.773Z,28.00
2019-05-16T14:22:57.307Z,34.30
2019-05-16T14:25:30.162Z,26.90
2019-05-16T14:27:57.258Z,31.13
2019-05-16T14:30:24.350Z,31.87
2019-05-16T14:33:13.701Z,27.50
2019-05-16T14:35:47.188Z,26.23
2019-05-16T14:38:21.546Z,30.57
2019-05-16T14:40:50.355Z,31.67
2019-05-16T14:43:23.728Z,29.97
2019-05-16T14:45:50.786Z,28.10
2019-05-16T14:48:18.525Z,30.37
2019-05-16T14:50:47.112Z,26.57
2019-05-16T14:53:14.348Z,30.50
2019-05-16T14:55:41.652Z,30.10
2019-05-16T14:58:08.798Z,30.83
2019-05-16T15:00:38.309Z,30.27
2019-05-16T15:03:14.764Z,35.90
2019-05-16T15:05:43.074Z,27.17
2019-05-16T15:08:20.748Z,28.67
2019-05-16T15:10:48.013Z,37.13
2019-05-16T15:13:17.504Z,31.20
2019-05-16T15:15:50.633Z,33.70
2019-05-16T15:18:18.011Z,32.93
2019-05-16T15:20:46.950Z,31.40
2019-05-16T15:23:17.256Z,31.67
2019-05-16T15:25:43.305Z,29.47
2019-05-16T15:28:10.430Z,31.53
2019-05-16T15:30:39.354Z,28.07
2019-05-16T15:33:08.624Z,37.73
2019-05-16T15:35:38.023Z,90.80
2019-05-16T15:38:07.497Z,55.63
2019-05-16T15:40:34.170Z,33.17
2019-05-16T15:43:01.341Z,39.70
2019-05-16T15:45:42.608Z,41.03
2019-05-16T15:48:08.452Z,31.43
2019-05-16T15:50:37.263Z,29.93
2019-05-16T15:53:07.754Z,29.60
2019-05-16T15:55:36.189Z,30.30
2019-05-16T15:58:03.003Z,26.67
2019-05-16T16:00:41.624Z,28.90
2019-05-16T16:03:08.718Z,30.67
2019-05-16T16:05:37.545Z,27.60
2019-05-16T16:08:06.913Z,24.60
2019-05-16T16:10:38.057Z,21.43
2019-05-16T16:13:06.758Z,26.40
2019-05-16T16:15:34.024Z,27.10
2019-05-16T16:18:01.099Z,25.63
2019-05-16T16:20:28.163Z,25.47
2019-05-16T16:22:57.275Z,20.73
2019-05-16T16:25:26.715Z,21.87
2019-05-16T16:27:53.304Z,18.60
2019-05-16T16:30:20.527Z,18.60
2019-05-16T16:32:47.613Z,21.87
2019-05-16T16:35:17.177Z,21.27
2019-05-16T16:37:43.706Z,22.70
2019-05-16T16:40:12.775Z,20.40
2019-05-16T16:42:40.027Z,24.23
2019-05-16T16:45:07.735Z,25.60
2019-05-16T16:47:37.450Z,27.43
2019-05-16T16:50:07.453Z,26.37
2019-05-16T16:52:33.076Z,29.33
2019-05-16T16:55:00.125Z,30.97
2019-05-16T16:57:27.246Z,26.70
2019-05-16T16:59:54.275Z,28.27
2019-05-16T17:02:22.416Z,27.77
2019-05-16T17:04:51.427Z,32.03
2019-05-16T17:07:18.529Z,27.00
2019-05-16T17:09:47.106Z,26.83
2019-05-16T17:12:14.316Z,25.37
2019-05-16T17:14:42.026Z,23.80
2019-05-16T17:17:09.108Z,26.03
2019-05-16T17:19:36.762Z,25.57
2019-05-16T17:22:14.586Z,27.13
2019-05-16T17:24:33.404Z,24.50
2019-05-16T17:27:00.736Z,25.27
2019-05-16T17:29:28.075Z,23.07
2019-05-16T17:32:05.334Z,24.40
2019-05-16T17:34:24.228Z,23.23
2019-05-16T17:36:51.340Z,21.10
2019-05-16T17:39:18.486Z,21.93
2019-05-16T17:41:49.267Z,23.43
2019-05-16T17:44:14.491Z,24.23
2019-05-16T17:46:41.596Z,25.47
2019-05-16T17:49:08.714Z,21.97
2019-05-16T17:51:36.753Z,26.90
2019-05-16T17:54:06.452Z,24.57
2019-05-16T17:56:33.183Z,25.60
2019-05-16T17:59:00.290Z,24.10
2019-05-16T18:01:27.535Z,19.10
2019-05-16T18:03:57.088Z,22.50
2019-05-16T18:06:23.815Z,21.70
2019-05-16T18:08:50.905Z,23.10
2019-05-16T18:11:18.002Z,21.90
2019-05-16T18:13:46.427Z,26.27
2019-05-16T18:16:13.569Z,20.63
2019-05-16T18:18:40.649Z,25.70
2019-05-16T18:21:07.765Z,22.60
2019-05-16T18:23:36.866Z,20.50
2019-05-16T18:26:04.108Z,23.87
2019-05-16T18:28:31.174Z,23.87
2019-05-16T18:30:58.443Z,19.60
2019-05-16T18:33:27.538Z,22.03
2019-05-16T18:35:54.535Z,22.90
2019-05-16T18:38:21.695Z,23.10
2019-05-16T18:40:48.827Z,24.47
2019-05-16T18:43:16.648Z,26.10
2019-05-16T18:45:43.961Z,21.77
2019-05-16T18:48:11.138Z,23.83
2019-05-16T18:50:38.408Z,25.17
2019-05-16T18:53:06.873Z,22.10
2019-05-16T18:55:36.791Z,25.10
2019-05-16T18:58:07.551Z,23.37
2019-05-16T19:00:32.931Z,36.37
2019-05-16T19:03:00.024Z,30.10
2019-05-16T19:05:29.003Z,32.40
2019-05-16T19:07:56.386Z,32.63
2019-05-16T19:10:23.643Z,26.20
2019-05-16T19:12:50.719Z,24.23
2019-05-16T19:15:19.848Z,27.17
2019-05-16T19:17:46.946Z,24.67
2019-05-16T19:20:17.220Z,26.70
2019-05-16T19:22:44.522Z,25.77
2019-05-16T19:25:12.486Z,26.13
2019-05-16T19:27:39.591Z,26.03
2019-05-16T19:30:07.385Z,23.40
2019-05-16T19:32:34.442Z,30.63
2019-05-16T19:35:01.494Z,24.50
2019-05-16T19:37:28.671Z,22.70
2019-05-16T19:39:56.947Z,23.80
2019-05-16T19:42:24.160Z,26.40
2019-05-16T19:44:51.251Z,22.10
2019-05-16T19:47:18.321Z,29.20
2019-05-16T19:49:46.414Z,28.33
2019-05-16T19:52:13.626Z,23.97
2019-05-16T19:54:40.744Z,28.80
2019-05-16T19:57:07.893Z,26.73
2019-05-16T19:59:36.676Z,29.07
2019-05-16T20:02:03.879Z,22.73
2019-05-16T20:04:31.001Z,22.37
2019-05-16T20:06:58.128Z,22.80
2019-05-16T20:09:26.879Z,23.50
2019-05-16T20:11:54.275Z,26.10
2019-05-16T20:14:21.339Z,29.47
2019-05-16T20:16:48.440Z,29.23
2019-05-16T20:19:15.523Z,30.63
2019-05-16T20:21:42.648Z,24.30
2019-05-16T20:24:09.839Z,27.23
2019-05-16T20:26:36.951Z,29.80
2019-05-16T20:29:04.281Z,30.53
2019-05-16T20:31:31.375Z,30.07
2019-05-16T20:33:58.507Z,30.60
2019-05-16T20:36:26.445Z,30.40
2019-05-16T20:38:53.579Z,28.23
2019-05-16T20:41:20.670Z,32.70
2019-05-16T20:43:47.769Z,29.30
2019-05-16T20:46:16.919Z,28.80
2019-05-16T20:48:46.378Z,28.07
2019-05-16T20:51:13.436Z,31.80
2019-05-16T20:53:40.793Z,28.13
2019-05-16T20:56:07.877Z,30.03
2019-05-16T20:58:34.994Z,29.40
2019-05-16T21:01:02.164Z,28.70
2019-05-16T21:03:29.226Z,36.93
2019-05-16T21:05:58.177Z,29.67
2019-05-16T21:08:26.580Z,27.43
2019-05-16T21:10:57.062Z,27.07
2019-05-16T21:13:24.198Z,33.57
2019-05-16T21:15:51.290Z,27.60
2019-05-16T21:18:18.375Z,29.83
2019-05-16T21:20:46.982Z,25.77
2019-05-16T21:23:19.078Z,30.13
2019-05-16T21:25:43.872Z,26.93
2019-05-16T21:28:10.974Z,25.53
2019-05-16T21:30:38.046Z,29.47
2019-05-16T21:33:05.140Z,25.10
2019-05-16T21:35:32.211Z,25.20
2019-05-16T21:37:59.282Z,30.63
2019-05-16T21:40:26.667Z,27.50
2019-05-16T21:42:58.553Z,28.43
2019-05-16T21:45:22.982Z,31.30
2019-05-16T21:47:50.066Z,25.33
2019-05-16T21:50:19.271Z,28.17
2019-05-16T21:52:46.986Z,28.97
2019-05-16T21:55:17.618Z,30.00
2019-05-16T21:57:46.649Z,31.10
2019-05-16T22:00:20.462Z,28.87
2019-05-16T22:02:47.521Z,29.60
2019-05-16T22:05:17.010Z,28.17
2019-05-16T22:07:44.192Z,29.23
2019-05-16T22:10:11.597Z,28.00
2019-05-16T22:12:38.703Z,29.97
2019-05-16T22:15:06.704Z,30.60
2019-05-16T22:17:33.895Z,29.50
2019-05-16T22:20:00.962Z,29.63
2019-05-16T22:22:30.007Z,30.13
2019-05-16T22:24:57.381Z,29.73
2019-05-16T22:27:26.773Z,33.90
2019-05-16T22:29:53.447Z,30.70
2019-05-16T22:32:20.525Z,24.50
2019-05-16T22:34:47.782Z,25.53
2019-05-16T22:37:17.034Z,24.10
2019-05-16T22:39:43.891Z,25.10
2019-05-16T22:42:10.954Z,22.00
2019-05-16T22:44:38.041Z,24.63
2019-05-16T22:47:06.708Z,25.47
2019-05-16T22:49:33.929Z,27.43
2019-05-16T22:52:01.029Z,27.50
2019-05-16T22:54:28.125Z,24.57
2019-05-16T22:56:57.185Z,28.80
2019-05-16T22:59:27.174Z,33.93
2019-05-16T23:01:56.832Z,34.23
2019-05-16T23:04:23.282Z,30.30
2019-05-16T23:06:50.362Z,30.57
2019-05-16T23:09:17.544Z,32.07
2019-05-16T23:11:45.420Z,26.67
2019-05-16T23:14:12.480Z,30.73
2019-05-16T23:16:39.576Z,27.10
2019-05-16T23:19:07.478Z,24.80
2019-05-16T23:21:36.611Z,28.90
2019-05-16T23:24:03.883Z,24.67
2019-05-16T23:26:30.977Z,25.00
2019-05-16T23:28:58.049Z,25.87
2019-05-16T23:31:27.170Z,26.30
2019-05-16T23:33:56.328Z,22.60
2019-05-16T23:36:23.412Z,22.83
2019-05-16T23:38:50.516Z,27.80
2019-05-16T23:41:17.590Z,26.80
2019-05-16T23:43:47.227Z,22.47
2019-05-16T23:46:16.526Z,27.13
2019-05-16T23:48:44.158Z,24.47
2019-05-16T23:51:11.265Z,29.90
2019-05-16T23:53:38.346Z,29.70
2019-05-16T23:56:07.373Z,23.57
2019-05-16T23:58:36.765Z,28.30
